Time;durP1;ratioP1;P1;durP2;ratioP2;P2;SDS_P1;SDS_P2;PMS_P1;PMS_P2;Temp;Humidity;BMP_temperature;BMP_pressure;BME280_temperature;BME280_humidity;BME280_pressure;Samples;Min_cycle;Max_cycle;Signal;HPM_P1;HPM_P2
2024/01/15 00:00:09;;;;;;;;;;;;;;;-1.47;60.81;96723.00;5076132;28;19925;-62
2024/01/15 00:02:58;;;;;;;;;;;;;;;-1.50;60.77;96718.19;5072218;28;20359;-58
2024/01/15 00:05:47;;;;;;;;;;;;;;;-1.50;61.12;96710.19;5071287;28;20109;-59
2024/01/15 00:08:36;;;;;;;;;;;;;;;-1.40;60.79;96699.56;5070002;28;20019;-59
2024/01/15 00:11:24;;;;;;;;;;;;;;;-1.37;60.59;96693.72;5069744;28;19928;-60
2024/01/15 00:14:14;;;;;;;;;;;;;;;-1.63;60.42;96698.97;5082005;28;19939;-60
2024/01/15 00:17:02;;;;;;;;;;;;;;;-1.53;60.48;96690.22;5070229;28;21262;-60
2024/01/15 00:19:51;;;;;;;;;;;;;;;-1.46;60.44;96708.59;5065410;28;19981;-59
2024/01/15 00:22:39;;;;;;;;;;;;;;;-1.72;61.46;96699.75;5070771;28;19977;-60
2024/01/15 00:25:28;;;;;;;;;;;;;;;-1.59;61.75;96685.94;5070464;28;19963;-59
2024/01/15 00:28:16;;;;;;;;;;;;;;;-1.58;63.01;96680.34;5071533;28;19932;-59
2024/01/15 00:31:04;;;;;;;;;;;;;;;-1.68;63.51;96683.00;5071326;28;19928;-59
2024/01/15 00:33:53;;;;;;;;;;;;;;;-1.66;63.31;96677.38;5063774;28;19925;-59
2024/01/15 00:36:41;;;;;;;;;;;;;;;-1.58;62.89;96672.34;5062733;28;20041;-59
2024/01/15 00:39:29;;;;;;;;;;;;;;;-1.56;62.91;96668.63;5073822;28;19924;-59
2024/01/15 00:42:18;;;;;;;;;;;;;;;-1.48;62.83;96665.47;5080558;28;19963;-59
2024/01/15 00:45:07;;;;;;;;;;;;;;;-1.44;62.47;96653.19;5074890;28;19924;-60
2024/01/15 00:47:56;;;;;;;;;;;;;;;-1.42;62.46;96640.41;5069805;28;19930;-60
2024/01/15 00:50:47;;;;;;;;;;;;;;;-1.38;62.20;96652.94;5060500;28;21271;-59
2024/01/15 00:53:35;;;;;;;;;;;;;;;-1.29;61.79;96655.06;5070358;28;19925;-62
2024/01/15 00:56:23;;;;;;;;;;;;;;;-1.21;61.95;96650.03;5068622;28;19981;-58
2024/01/15 00:59:14;;;;;;;;;;;;;;;-1.51;62.38;96650.00;5066635;28;19924;-59
2024/01/15 01:02:04;;;;;;;;;;;;;;;-1.44;62.40;96639.88;5070098;28;20018;-60
2024/01/15 01:04:55;;;;;;;;;;;;;;;-1.35;62.49;96641.75;5065679;28;20399;-63
2024/01/15 01:07:43;;;;;;;;;;;;;;;-1.36;62.62;96660.66;5065944;28;20286;-58
2024/01/15 01:10:31;;;;;;;;;;;;;;;-1.42;62.84;96667.06;5069867;28;19924;-58
2024/01/15 01:13:19;;;;;;;;;;;;;;;-1.47;63.26;96669.72;5068143;28;20019;-59
2024/01/15 01:16:09;;;;;;;;;;;;;;;-1.55;63.37;96673.69;5067258;28;20019;-59
2024/01/15 01:18:57;;;;;;;;;;;;;;;-1.48;63.27;96657.47;5068183;28;19929;-59
2024/01/15 01:21:45;;;;;;;;;;;;;;;-1.49;63.66;96658.50;5069239;28;19924;-58
2024/01/15 01:24:33;;;;;;;;;;;;;;;-1.52;63.70;96667.03;5070325;28;19935;-58
2024/01/15 01:27:22;;;;;;;;;;;;;;;-1.49;63.76;96654.00;5066556;28;19933;-59
2024/01/15 01:30:10;;;;;;;;;;;;;;;-1.45;64.29;96654.25;5067136;28;20445;-59
2024/01/15 01:33:00;;;;;;;;;;;;;;;-1.28;63.44;96646.00;5060337;28;20393;-61
2024/01/15 01:35:48;;;;;;;;;;;;;;;-1.37;64.23;96649.22;5069540;28;20366;-58
2024/01/15 01:38:36;;;;;;;;;;;;;;;-1.21;63.82;96644.69;5063376;28;19995;-60
2024/01/15 01:41:25;;;;;;;;;;;;;;;-1.28;63.73;96648.66;5068510;28;19926;-60
2024/01/15 01:44:13;;;;;;;;;;;;;;;-1.34;64.13;96654.00;5068415;28;20037;-59
2024/01/15 01:47:01;;;;;;;;;;;;;;;-1.40;64.41;96647.06;5064845;28;20003;-62
2024/01/15 01:49:50;;;;;;;;;;;;;;;-1.40;64.86;96640.94;5068851;28;19990;-60
2024/01/15 01:52:38;;;;;;;;;;;;;;;-1.28;64.91;96641.47;5065213;28;20271;-59
2024/01/15 01:55:28;;;;;;;;;;;;;;;-1.40;65.17;96644.41;5066849;28;19928;-61
2024/01/15 01:58:16;;;;;;;;;;;;;;;-1.30;65.43;96643.63;5068509;28;20418;-58
2024/01/15 02:01:04;;;;;;;;;;;;;;;-1.39;65.79;96635.34;5069139;28;20460;-59
2024/01/15 02:03:52;;;;;;;;;;;;;;;-1.16;65.66;96628.69;5065618;28;20038;-62
2024/01/15 02:06:42;;;;;;;;;;;;;;;-1.15;65.50;96626.84;5068608;28;20304;-58
2024/01/15 02:09:31;;;;;;;;;;;;;;;-1.16;65.54;96634.03;5068089;28;19924;-58
2024/01/15 02:12:20;;;;;;;;;;;;;;;-1.12;65.40;96640.44;5064163;28;19939;-60
2024/01/15 02:15:08;;;;;;;;;;;;;;;-1.15;65.56;96648.94;5068501;28;19931;-60
2024/01/15 02:18:00;;;;;;;;;;;;;;;-1.02;65.55;96638.81;5066911;28;19925;-63
2024/01/15 02:20:48;;;;;;;;;;;;;;;-1.20;66.20;96632.16;5064074;28;19928;-60
2024/01/15 02:23:38;;;;;;;;;;;;;;;-1.09;65.98;96637.22;5067548;28;20403;-60
2024/01/15 02:26:26;;;;;;;;;;;;;;;-1.10;66.16;96638.28;5068965;28;20388;-59
2024/01/15 02:29:14;;;;;;;;;;;;;;;-1.17;67.19;96632.44;5070335;28;19955;-59
2024/01/15 02:32:05;;;;;;;;;;;;;;;-1.08;66.65;96640.69;5075801;28;20003;-60
2024/01/15 02:34:53;;;;;;;;;;;;;;;-1.03;66.97;96643.34;5074899;28;19940;-60
2024/01/15 02:37:41;;;;;;;;;;;;;;;-1.04;66.63;96636.41;5069177;28;19924;-60
2024/01/15 02:40:31;;;;;;;;;;;;;;;-0.97;66.67;96638.81;5064650;28;20461;-61
2024/01/15 02:43:19;;;;;;;;;;;;;;;-0.89;65.63;96638.28;5075404;28;20312;-62
2024/01/15 02:46:07;;;;;;;;;;;;;;;-1.00;65.95;96626.81;5074429;28;19928;-61
2024/01/15 02:48:59;;;;;;;;;;;;;;;-1.00;66.44;96631.38;5070942;28;20030;-59
2024/01/15 02:51:47;;;;;;;;;;;;;;;-0.91;65.96;96635.06;5064777;28;20408;-58
2024/01/15 02:54:38;;;;;;;;;;;;;;;-0.99;66.84;96639.09;5064484;28;20278;-61
2024/01/15 02:57:28;;;;;;;;;;;;;;;-1.09;67.20;96642.53;5066949;28;19932;-62
2024/01/15 03:00:16;;;;;;;;;;;;;;;-0.94;67.02;96641.75;5069045;28;19924;-59
2024/01/15 03:03:05;;;;;;;;;;;;;;;-1.01;67.21;96635.06;5062849;28;20015;-61
2024/01/15 03:05:53;;;;;;;;;;;;;;;-1.09;68.08;96636.41;5066909;28;19924;-59
2024/01/15 03:08:41;;;;;;;;;;;;;;;-0.96;67.65;96637.72;5064048;28;20309;-59
2024/01/15 03:11:29;;;;;;;;;;;;;;;-0.93;67.87;96634.53;5067215;28;19928;-59
2024/01/15 03:14:20;;;;;;;;;;;;;;;-0.77;67.99;96636.13;5063079;28;20368;-59
2024/01/15 03:17:09;;;;;;;;;;;;;;;-0.85;68.85;96626.00;5066728;28;20382;-58
2024/01/15 03:19:56;;;;;;;;;;;;;;;-0.82;67.96;96628.13;5069601;28;19925;-60
2024/01/15 03:22:45;;;;;;;;;;;;;;;-0.87;68.38;96626.25;5064960;28;19967;-59
2024/01/15 03:25:33;;;;;;;;;;;;;;;-0.94;68.73;96624.94;5068310;28;19925;-60
2024/01/15 03:28:21;;;;;;;;;;;;;;;-1.00;69.00;96610.03;5065507;28;19932;-61
2024/01/15 03:31:10;;;;;;;;;;;;;;;-0.89;68.53;96614.28;5065160;28;19925;-64
2024/01/15 03:33:58;;;;;;;;;;;;;;;-0.84;67.82;96606.28;5069783;28;20639;-61
2024/01/15 03:36:47;;;;;;;;;;;;;;;-0.93;67.77;96602.56;5063798;28;20160;-60
2024/01/15 03:39:35;;;;;;;;;;;;;;;-0.88;67.94;96599.88;5066444;28;20392;-58
2024/01/15 03:42:23;;;;;;;;;;;;;;;-0.94;68.44;96592.97;5069425;28;19978;-60
2024/01/15 03:45:11;;;;;;;;;;;;;;;-0.96;69.26;96597.75;5066620;28;19928;-59
2024/01/15 03:48:01;;;;;;;;;;;;;;;-0.89;69.41;96595.63;5067911;28;20025;-59
2024/01/15 03:50:49;;;;;;;;;;;;;;;-0.86;69.31;96590.53;5066699;28;19925;-59
2024/01/15 03:53:37;;;;;;;;;;;;;;;-0.98;68.48;96586.56;5065574;28;20415;-59
2024/01/15 03:56:25;;;;;;;;;;;;;;;-0.87;68.26;96580.13;5069277;28;20297;-59
2024/01/15 03:59:13;;;;;;;;;;;;;;;-0.74;68.17;96570.78;5067297;28;20404;-59
2024/01/15 04:02:01;;;;;;;;;;;;;;;-0.69;67.96;96590.25;5050667;28;19924;-59
2024/01/15 04:04:50;;;;;;;;;;;;;;;-0.75;68.18;96593.97;5067794;28;20407;-59
2024/01/15 04:07:38;;;;;;;;;;;;;;;-0.67;67.85;96582.75;5060876;28;19924;-58
2024/01/15 04:10:26;;;;;;;;;;;;;;;-0.72;67.88;96582.78;5066302;28;20013;-65
2024/01/15 04:13:15;;;;;;;;;;;;;;;-0.66;67.76;96581.69;5071494;28;19928;-59
2024/01/15 04:16:03;;;;;;;;;;;;;;;-0.70;67.72;96577.94;5072122;28;19929;-63
2024/01/15 04:18:51;;;;;;;;;;;;;;;-0.69;67.60;96573.41;5069170;28;20007;-60
2024/01/15 04:21:42;;;;;;;;;;;;;;;-0.80;67.79;96577.97;5067851;28;20057;-60
2024/01/15 04:24:32;;;;;;;;;;;;;;;-0.82;68.56;96583.59;5070131;28;19929;-59
2024/01/15 04:27:20;;;;;;;;;;;;;;;-0.61;67.78;96579.00;5070448;28;20042;-60
2024/01/15 04:30:09;;;;;;;;;;;;;;;-0.59;67.83;96579.50;5074360;28;20539;-59
2024/01/15 04:32:57;;;;;;;;;;;;;;;-0.63;67.75;96585.69;5055152;28;20013;-58
2024/01/15 04:35:45;;;;;;;;;;;;;;;-0.64;67.93;96590.22;5065293;28;20393;-61
2024/01/15 04:38:36;;;;;;;;;;;;;;;-0.66;67.75;96581.69;5068157;28;20369;-60
2024/01/15 04:41:24;;;;;;;;;;;;;;;-0.58;67.97;96578.47;5071567;28;20381;-61
2024/01/15 04:44:12;;;;;;;;;;;;;;;-0.65;67.79;96579.81;5074087;28;19924;-59
2024/01/15 04:47:00;;;;;;;;;;;;;;;-0.63;67.91;96578.47;5067845;28;20058;-59
2024/01/15 04:49:49;;;;;;;;;;;;;;;-0.60;67.78;96577.91;5071002;28;20085;-63
2024/01/15 04:52:37;;;;;;;;;;;;;;;-0.59;68.30;96582.19;5067305;28;20356;-60
2024/01/15 04:55:26;;;;;;;;;;;;;;;-0.60;68.14;96572.59;5070655;28;20021;-60
2024/01/15 04:58:14;;;;;;;;;;;;;;;-0.63;67.94;96567.00;5059825;28;19958;-61
2024/01/15 05:01:03;;;;;;;;;;;;;;;-0.61;68.14;96564.88;5069280;28;20346;-62
2024/01/15 05:03:51;;;;;;;;;;;;;;;-0.55;68.25;96555.78;5061958;28;20398;-60
2024/01/15 05:06:40;;;;;;;;;;;;;;;-0.52;67.89;96557.09;5067206;28;19924;-60
2024/01/15 05:09:29;;;;;;;;;;;;;;;-0.46;67.69;96551.47;5069611;28;19929;-59
2024/01/15 05:12:21;;;;;;;;;;;;;;;-0.35;67.02;96555.69;5070724;28;19972;-58
2024/01/15 05:15:10;;;;;;;;;;;;;;;-0.35;67.05;96546.88;5066591;28;19987;-59
2024/01/15 05:17:58;;;;;;;;;;;;;;;-0.16;66.60;96544.38;5053839;28;20007;-59
2024/01/15 05:20:46;;;;;;;;;;;;;;;-0.12;66.16;96540.88;5071194;28;20671;-59
2024/01/15 05:23:35;;;;;;;;;;;;;;;-0.10;65.64;96552.09;5069837;28;20425;-62
2024/01/15 05:26:23;;;;;;;;;;;;;;;-0.11;65.98;96563.81;5069270;28;20463;-60
2024/01/15 05:29:12;;;;;;;;;;;;;;;-0.15;66.16;96557.47;5070472;28;19952;-61
2024/01/15 05:32:00;;;;;;;;;;;;;;;-0.11;65.93;96544.34;5070844;28;19925;-58
2024/01/15 05:34:49;;;;;;;;;;;;;;;-0.02;65.74;96553.38;5063787;28;19948;-59
2024/01/15 05:37:40;;;;;;;;;;;;;;;-0.04;65.11;96552.84;5069686;28;19924;-59
2024/01/15 05:40:32;;;;;;;;;;;;;;;-0.15;65.40;96543.31;5061841;28;19928;-60
2024/01/15 05:43:20;;;;;;;;;;;;;;;-0.16;65.77;96555.88;5068738;28;19931;-60
2024/01/15 05:46:09;;;;;;;;;;;;;;;-0.15;65.74;96546.78;5067499;28;19934;-60
2024/01/15 05:48:57;;;;;;;;;;;;;;;-0.10;65.72;96549.41;5068982;28;19925;-59
2024/01/15 05:51:46;;;;;;;;;;;;;;;-0.06;65.54;96539.75;5065240;28;19932;-61
2024/01/15 05:54:34;;;;;;;;;;;;;;;-0.02;65.54;96540.03;5062315;28;19925;-62
2024/01/15 05:57:22;;;;;;;;;;;;;;;-0.08;65.67;96535.78;5063494;28;19993;-59
2024/01/15 06:00:10;;;;;;;;;;;;;;;-0.06;66.06;96541.63;5063601;28;19935;-60
2024/01/15 06:03:00;;;;;;;;;;;;;;;-0.26;66.23;96547.91;5069390;28;20058;-60
2024/01/15 06:05:48;;;;;;;;;;;;;;;0.03;65.47;96536.53;5069651;28;19931;-60
2024/01/15 06:08:36;;;;;;;;;;;;;;;0.03;65.36;96537.31;5061307;28;20029;-61
2024/01/15 06:11:24;;;;;;;;;;;;;;;0.13;66.28;96537.25;5068623;28;20467;-60
2024/01/15 06:14:13;;;;;;;;;;;;;;;-0.01;66.61;96542.41;5067683;28;20046;-61
2024/01/15 06:17:01;;;;;;;;;;;;;;;-0.08;67.43;96551.81;5066067;28;20487;-62
2024/01/15 06:19:50;;;;;;;;;;;;;;;-0.04;67.32;96540.31;5066238;28;20082;-58
2024/01/15 06:22:40;;;;;;;;;;;;;;;-0.03;67.17;96560.59;5066752;28;20267;-59
2024/01/15 06:25:28;;;;;;;;;;;;;;;-0.02;68.35;96556.84;5063125;28;19969;-59
2024/01/15 06:28:16;;;;;;;;;;;;;;;0.04;67.68;96554.94;5068254;28;19946;-58
2024/01/15 06:31:05;;;;;;;;;;;;;;;0.11;68.30;96563.44;5068844;28;19928;-59
2024/01/15 06:33:54;;;;;;;;;;;;;;;-0.07;69.40;96556.84;5062905;28;19975;-60
2024/01/15 06:36:43;;;;;;;;;;;;;;;0.06;70.70;96552.00;5063472;28;19925;-58
2024/01/15 06:39:32;;;;;;;;;;;;;;;0.24;71.27;96559.34;5064266;28;19931;-60
2024/01/15 06:42:21;;;;;;;;;;;;;;;0.29;70.91;96553.16;5064077;28;19932;-59
2024/01/15 06:45:10;;;;;;;;;;;;;;;0.23;73.47;96555.88;5060200;28;19924;-60
2024/01/15 06:47:58;;;;;;;;;;;;;;;0.26;72.35;96549.97;5068353;28;19928;-59
2024/01/15 06:50:46;;;;;;;;;;;;;;;0.25;71.75;96540.38;5064582;28;19930;-59
2024/01/15 06:53:35;;;;;;;;;;;;;;;0.04;71.40;96538.13;5071875;28;19982;-58
2024/01/15 06:56:23;;;;;;;;;;;;;;;-0.10;70.91;96544.09;5059885;28;19924;-60
2024/01/15 06:59:15;;;;;;;;;;;;;;;-0.06;70.02;96542.44;5067095;28;19933;-60
2024/01/15 07:02:06;;;;;;;;;;;;;;;0.13;69.61;96541.81;5072725;28;20455;-58
2024/01/15 07:04:54;;;;;;;;;;;;;;;-0.03;69.74;96541.91;5069018;28;19924;-58
2024/01/15 07:07:45;;;;;;;;;;;;;;;0.19;68.63;96544.16;5065991;28;20043;-59
2024/01/15 07:10:38;;;;;;;;;;;;;;;0.11;69.18;96550.09;5068421;28;19928;-58
2024/01/15 07:13:26;;;;;;;;;;;;;;;0.35;68.38;96538.69;5069349;28;20404;-58
2024/01/15 07:16:14;;;;;;;;;;;;;;;-0.03;68.69;96541.09;5071511;28;19924;-63
2024/01/15 07:19:20;;;;;;;;;;;;;;;0.16;68.55;96551.91;5070468;28;19925;-59
2024/01/15 07:22:10;;;;;;;;;;;;;;;0.09;69.27;96556.78;5068498;28;20023;-58
2024/01/15 07:24:58;;;;;;;;;;;;;;;0.01;70.76;96554.69;5064309;28;20405;-59
2024/01/15 07:27:47;;;;;;;;;;;;;;;0.05;71.50;96561.06;5068270;28;19928;-59
2024/01/15 07:30:38;;;;;;;;;;;;;;;-0.15;72.26;96554.78;5068683;28;19932;-59
2024/01/15 07:33:27;;;;;;;;;;;;;;;-0.15;72.35;96562.00;5068977;28;19931;-58
2024/01/15 07:36:15;;;;;;;;;;;;;;;-0.13;71.63;96563.31;5068064;28;19932;-59
2024/01/15 07:39:04;;;;;;;;;;;;;;;-0.14;71.48;96572.41;5067318;28;20410;-59
2024/01/15 07:41:52;;;;;;;;;;;;;;;-0.30;70.92;96566.34;5069250;28;19925;-59
2024/01/15 07:44:41;;;;;;;;;;;;;;;-0.19;71.51;96568.97;5066465;28;19983;-59
2024/01/15 07:47:29;;;;;;;;;;;;;;;-0.05;71.17;96576.09;5068072;28;19986;-59
2024/01/15 07:50:18;;;;;;;;;;;;;;;0.09;71.36;96568.25;5070737;28;20007;-60
2024/01/15 07:53:06;;;;;;;;;;;;;;;-0.20;72.49;96573.50;5072808;28;19924;-59
2024/01/15 07:55:54;;;;;;;;;;;;;;;-0.06;71.31;96566.47;5062718;28;19925;-59
2024/01/15 07:58:44;;;;;;;;;;;;;;;0.03;70.99;96566.69;5069857;28;20381;-59
2024/01/15 08:01:33;;;;;;;;;;;;;;;0.21;70.83;96571.41;5079337;28;20294;-60
2024/01/15 08:04:21;;;;;;;;;;;;;;;0.37;70.38;96568.59;5070185;28;19925;-59
2024/01/15 08:07:10;;;;;;;;;;;;;;;0.28;70.24;96571.06;5071392;28;19971;-59
2024/01/15 08:09:58;;;;;;;;;;;;;;;0.18;70.51;96569.25;5066493;28;19932;-59
2024/01/15 08:12:46;;;;;;;;;;;;;;;0.11;71.02;96571.47;5070673;28;20053;-58
2024/01/15 08:15:34;;;;;;;;;;;;;;;0.30;70.43;96568.91;5064994;28;19924;-58
2024/01/15 08:18:25;;;;;;;;;;;;;;;0.43;69.85;96565.63;5070660;28;20342;-59
2024/01/15 08:21:14;;;;;;;;;;;;;;;0.42;69.57;96572.03;5071583;28;19924;-59
2024/01/15 08:24:03;;;;;;;;;;;;;;;0.45;68.62;96566.13;5070814;28;19982;-59
2024/01/15 08:26:51;;;;;;;;;;;;;;;0.31;69.01;96565.16;5071617;28;20003;-59
2024/01/15 08:29:42;;;;;;;;;;;;;;;0.22;69.18;96573.00;5070120;28;20370;-60
2024/01/15 08:32:30;;;;;;;;;;;;;;;0.42;68.68;96558.66;5070785;28;20427;-59
2024/01/15 08:35:22;;;;;;;;;;;;;;;0.57;67.71;96567.66;5073601;28;19932;-59
2024/01/15 08:38:10;;;;;;;;;;;;;;;0.47;67.68;96558.63;5066797;28;19925;-59
2024/01/15 08:41:00;;;;;;;;;;;;;;;0.52;67.97;96561.25;5075037;28;19924;-59
2024/01/15 08:43:48;;;;;;;;;;;;;;;0.58;68.31;96563.88;5079611;28;20015;-59
2024/01/15 08:46:39;;;;;;;;;;;;;;;0.62;67.73;96564.94;5067997;28;20019;-60
2024/01/15 08:49:27;;;;;;;;;;;;;;;0.60;67.89;96564.44;5073887;28;20013;-61
2024/01/15 08:52:16;;;;;;;;;;;;;;;0.41;68.24;96565.09;5076859;28;19928;-59
2024/01/15 08:55:07;;;;;;;;;;;;;;;0.60;67.24;96561.75;5068293;28;19936;-59
2024/01/15 08:57:55;;;;;;;;;;;;;;;0.57;67.36;96554.28;5074208;28;20531;-61
2024/01/15 09:00:43;;;;;;;;;;;;;;;0.63;67.24;96561.97;5054011;28;19924;-59
2024/01/15 09:03:32;;;;;;;;;;;;;;;0.73;67.10;96561.09;5070175;28;20401;-60
2024/01/15 09:06:20;;;;;;;;;;;;;;;0.80;66.42;96566.94;5069839;28;19955;-59
2024/01/15 09:09:10;;;;;;;;;;;;;;;0.80;66.73;96564.25;5070829;28;20007;-59
2024/01/15 09:11:58;;;;;;;;;;;;;;;0.86;67.20;96565.81;5071947;28;19928;-59
2024/01/15 09:14:46;;;;;;;;;;;;;;;1.10;66.14;96565.03;5070937;28;19931;-59
2024/01/15 09:17:35;;;;;;;;;;;;;;;0.99;66.96;96567.00;5071526;28;20393;-59
2024/01/15 09:20:25;;;;;;;;;;;;;;;1.02;67.28;96564.56;5070469;28;20298;-59
2024/01/15 09:23:13;;;;;;;;;;;;;;;0.95;68.41;96566.75;5070545;28;19925;-59
2024/01/15 09:26:03;;;;;;;;;;;;;;;0.90;68.64;96564.13;5071561;28;20897;-58
2024/01/15 09:28:50;;;;;;;;;;;;;;;0.75;68.93;96565.09;5068954;28;20562;-59
2024/01/15 09:31:39;;;;;;;;;;;;;;;0.52;69.56;96563.13;5069484;28;19924;-60
2024/01/15 09:34:30;;;;;;;;;;;;;;;0.69;69.63;96570.75;5068141;28;20388;-60
2024/01/15 09:37:18;;;;;;;;;;;;;;;0.61;68.90;96568.69;5065144;28;20390;-59
2024/01/15 09:40:19;;;;;;;;;;;;;;;0.79;68.54;96570.66;5063132;28;19925;-59
2024/01/15 09:43:08;;;;;;;;;;;;;;;0.74;68.44;96573.38;5068512;28;20026;-60
2024/01/15 09:45:56;;;;;;;;;;;;;;;0.87;67.60;96577.28;5070503;28;20271;-59
2024/01/15 09:48:44;;;;;;;;;;;;;;;0.75;67.94;96570.44;5069713;28;20015;-60
2024/01/15 09:51:32;;;;;;;;;;;;;;;0.83;67.50;96574.38;5068456;28;20369;-58
2024/01/15 09:54:21;;;;;;;;;;;;;;;0.96;66.83;96573.72;5069859;28;20523;-59
2024/01/15 09:57:09;;;;;;;;;;;;;;;0.90;66.94;96574.84;5069443;28;19924;-59
2024/01/15 10:00:03;;;;;;;;;;;;;;;1.05;67.01;96569.34;5066560;28;19932;-60
2024/01/15 10:02:52;;;;;;;;;;;;;;;1.08;66.89;96572.53;5070925;28;19928;-60
2024/01/15 10:05:41;;;;;;;;;;;;;;;0.92;67.11;96569.22;5068637;28;19928;-59
2024/01/15 10:08:29;;;;;;;;;;;;;;;1.00;67.33;96561.38;5066775;28;19925;-59
2024/01/15 10:11:19;;;;;;;;;;;;;;;1.15;66.33;96562.31;5066247;28;19924;-60
2024/01/15 10:14:07;;;;;;;;;;;;;;;0.90;67.22;96566.81;5067348;28;19933;-61
2024/01/15 10:16:57;;;;;;;;;;;;;;;1.02;67.14;96564.56;5066268;28;19939;-59
2024/01/15 10:19:46;;;;;;;;;;;;;;;1.02;66.97;96561.09;5069965;28;20456;-59
2024/01/15 10:22:37;;;;;;;;;;;;;;;0.99;70.19;96554.44;5068456;28;20006;-58
2024/01/15 10:25:25;;;;;;;;;;;;;;;0.84;72.05;96546.56;5066168;28;20020;-60
2024/01/15 10:28:14;;;;;;;;;;;;;;;0.67;72.45;96540.84;5069034;28;20019;-59
2024/01/15 10:31:03;;;;;;;;;;;;;;;0.82;70.81;96539.91;5070745;28;19928;-59
2024/01/15 10:33:52;;;;;;;;;;;;;;;0.85;69.36;96537.44;5070121;28;19924;-59
2024/01/15 10:36:42;;;;;;;;;;;;;;;1.01;69.09;96528.22;5065928;28;20318;-60
2024/01/15 10:39:30;;;;;;;;;;;;;;;1.08;68.56;96524.41;5069991;28;20574;-59
2024/01/15 10:42:18;;;;;;;;;;;;;;;1.23;67.44;96518.88;5069324;28;20003;-59
2024/01/15 10:45:08;;;;;;;;;;;;;;;1.16;67.40;96518.41;5066450;28;20503;-60
2024/01/15 10:47:58;;;;;;;;;;;;;;;0.99;67.48;96525.00;5066630;28;20013;-58
2024/01/15 10:50:48;;;;;;;;;;;;;;;0.85;68.33;96512.59;5080207;28;19929;-61
2024/01/15 10:53:37;;;;;;;;;;;;;;;0.98;68.35;96515.41;5068332;28;19978;-59
2024/01/15 10:56:25;;;;;;;;;;;;;;;0.99;68.35;96510.84;5067345;28;19930;-59
2024/01/15 10:59:13;;;;;;;;;;;;;;;0.97;68.78;96508.47;5067429;28;20025;-61
2024/01/15 11:02:01;;;;;;;;;;;;;;;0.85;69.60;96510.72;5066161;28;19928;-58
2024/01/15 11:04:49;;;;;;;;;;;;;;;1.09;68.67;96504.59;5063112;28;19932;-60
2024/01/15 11:07:38;;;;;;;;;;;;;;;1.26;67.96;96494.22;5057454;28;20304;-58
2024/01/15 11:10:40;;;;;;;;;;;;;;;1.11;68.30;96502.41;5068082;28;19924;-60
2024/01/15 11:13:40;;;;;;;;;;;;;;;1.13;68.03;96495.72;5069517;28;19931;-60
2024/01/15 11:16:30;;;;;;;;;;;;;;;1.25;67.08;96492.63;5068198;28;19925;-59
2024/01/15 11:19:18;;;;;;;;;;;;;;;1.43;66.96;96494.53;5067707;28;20268;-60
2024/01/15 11:22:08;;;;;;;;;;;;;;;1.26;67.14;96495.03;5063276;28;19935;-59
2024/01/15 11:24:57;;;;;;;;;;;;;;;1.04;67.92;96492.06;5067923;28;19924;-59
2024/01/15 11:27:48;;;;;;;;;;;;;;;1.33;67.01;96492.00;5065210;28;20493;-60
2024/01/15 11:30:36;;;;;;;;;;;;;;;1.52;67.28;96486.69;5068322;28;20360;-59
2024/01/15 11:33:33;;;;;;;;;;;;;;;1.61;67.11;96478.81;5068886;28;19925;-60
2024/01/15 11:36:21;;;;;;;;;;;;;;;1.29;68.29;96482.97;5067918;28;20304;-58
2024/01/15 11:39:25;;;;;;;;;;;;;;;1.33;68.55;96478.59;5068168;28;19924;-59
2024/01/15 11:42:14;;;;;;;;;;;;;;;1.47;68.00;96476.84;5068838;28;20440;-59
2024/01/15 11:45:03;;;;;;;;;;;;;;;1.43;68.32;96473.13;5064728;28;19925;-58
2024/01/15 11:48:08;;;;;;;;;;;;;;;1.52;68.23;96482.13;5066348;28;19928;-59
2024/01/15 11:50:59;;;;;;;;;;;;;;;1.39;67.77;96482.84;5064916;28;19932;-59
2024/01/15 11:53:48;;;;;;;;;;;;;;;1.54;67.71;96479.16;5067290;28;19925;-59
2024/01/15 11:56:36;;;;;;;;;;;;;;;1.60;67.29;96470.00;5069522;28;20352;-59
2024/01/15 11:59:25;;;;;;;;;;;;;;;1.31;68.37;96475.44;5068490;28;19932;-60
2024/01/15 12:02:13;;;;;;;;;;;;;;;1.17;69.58;96471.84;5067064;28;20021;-60
2024/01/15 12:05:02;;;;;;;;;;;;;;;1.30;69.38;96465.81;5062549;28;19931;-60
2024/01/15 12:07:51;;;;;;;;;;;;;;;1.29;69.48;96467.69;5067714;28;19936;-58
2024/01/15 12:10:40;;;;;;;;;;;;;;;1.42;69.50;96471.53;5066241;28;20274;-58
2024/01/15 12:13:29;;;;;;;;;;;;;;;1.41;69.15;96475.31;5067709;28;19925;-60
2024/01/15 12:16:18;;;;;;;;;;;;;;;1.39;69.30;96480.16;5068277;28;19944;-62
2024/01/15 12:19:06;;;;;;;;;;;;;;;1.43;68.83;96473.13;5067529;28;19928;-60
2024/01/15 12:21:55;;;;;;;;;;;;;;;1.56;69.07;96472.44;5067426;28;19925;-59
2024/01/15 12:24:43;;;;;;;;;;;;;;;1.70;68.72;96466.34;5064751;28;19935;-59
2024/01/15 12:27:31;;;;;;;;;;;;;;;1.52;69.07;96457.25;5067018;28;19924;-59
2024/01/15 12:30:19;;;;;;;;;;;;;;;1.59;68.65;96460.34;5063249;28;19926;-58
2024/01/15 12:33:09;;;;;;;;;;;;;;;1.56;69.01;96461.72;5067986;28;20054;-61
2024/01/15 12:35:59;;;;;;;;;;;;;;;1.64;69.32;96464.84;5070423;28;20710;-60
2024/01/15 12:38:47;;;;;;;;;;;;;;;1.34;70.14;96469.53;5070083;28;19967;-60
2024/01/15 12:41:38;;;;;;;;;;;;;;;1.31;69.54;96467.41;5068006;28;20024;-58
2024/01/15 12:44:26;;;;;;;;;;;;;;;1.41;69.36;96467.28;5070286;28;19925;-63
2024/01/15 12:47:17;;;;;;;;;;;;;;;1.57;69.13;96463.31;5073209;28;20405;-59
2024/01/15 12:50:08;;;;;;;;;;;;;;;1.61;69.17;96454.72;5070309;28;20077;-59
2024/01/15 12:53:03;;;;;;;;;;;;;;;1.64;68.96;96454.13;5074925;28;19924;-59
2024/01/15 12:55:51;;;;;;;;;;;;;;;1.73;68.50;96449.72;5064237;28;20466;-63
2024/01/15 12:58:40;;;;;;;;;;;;;;;1.44;69.07;96449.84;5068176;28;19967;-59
2024/01/15 13:01:27;;;;;;;;;;;;;;;1.65;68.93;96445.00;5069439;28;20015;-60
2024/01/15 13:04:22;;;;;;;;;;;;;;;1.70;67.99;96451.09;5068788;28;19933;-59
2024/01/15 13:07:14;;;;;;;;;;;;;;;1.70;67.94;96452.97;5072750;28;19924;-61
2024/01/15 13:10:02;;;;;;;;;;;;;;;1.69;68.11;96449.50;5068595;28;19932;-59
2024/01/15 13:12:50;;;;;;;;;;;;;;;1.71;68.09;96457.25;5063686;28;19932;-58
2024/01/15 13:15:38;;;;;;;;;;;;;;;1.69;68.30;96460.22;5067497;28;19928;-61
2024/01/15 13:18:26;;;;;;;;;;;;;;;1.51;68.59;96461.78;5060973;28;19932;-63
2024/01/15 13:21:16;;;;;;;;;;;;;;;1.67;68.80;96466.94;5069276;28;20019;-60
2024/01/15 13:24:05;;;;;;;;;;;;;;;1.59;69.19;96463.03;5061843;28;20282;-59
2024/01/15 13:26:54;;;;;;;;;;;;;;;1.43;69.70;96462.44;5070731;28;20018;-59
2024/01/15 13:29:44;;;;;;;;;;;;;;;1.54;69.27;96465.75;5071250;28;20358;-59
2024/01/15 13:32:32;;;;;;;;;;;;;;;1.62;69.36;96464.34;5071111;28;19924;-59
2024/01/15 13:35:20;;;;;;;;;;;;;;;1.49;69.82;96461.31;5070148;28;20023;-60
2024/01/15 13:38:08;;;;;;;;;;;;;;;1.53;69.61;96456.94;5071080;28;19936;-60
2024/01/15 13:40:59;;;;;;;;;;;;;;;1.55;69.90;96446.75;5065440;28;20308;-60
2024/01/15 13:43:48;;;;;;;;;;;;;;;1.48;69.65;96454.34;5064560;28;20621;-60
2024/01/15 13:46:38;;;;;;;;;;;;;;;1.44;70.48;96450.66;5073760;28;20036;-58
2024/01/15 13:49:26;;;;;;;;;;;;;;;1.38;70.28;96453.66;5068338;28;20369;-62
2024/01/15 13:52:14;;;;;;;;;;;;;;;1.54;70.22;96463.09;5070970;28;20069;-58
2024/01/15 13:55:02;;;;;;;;;;;;;;;1.49;70.42;96460.47;5066538;28;20013;-59
2024/01/15 13:57:52;;;;;;;;;;;;;;;1.57;71.40;96460.63;5065997;28;19924;-59
2024/01/15 14:00:40;;;;;;;;;;;;;;;1.76;71.92;96473.25;5057089;28;19929;-62
2024/01/15 14:03:28;;;;;;;;;;;;;;;1.74;70.98;96468.16;5058121;28;19925;-60
2024/01/15 14:06:16;;;;;;;;;;;;;;;1.49;71.50;96461.31;5067489;28;19940;-59
2024/01/15 14:09:04;;;;;;;;;;;;;;;1.70;71.19;96471.72;5067318;28;19928;-59
2024/01/15 14:11:53;;;;;;;;;;;;;;;1.84;70.39;96477.94;5067802;28;20158;-59
2024/01/15 14:14:45;;;;;;;;;;;;;;;1.57;71.06;96468.66;5064652;28;19924;-62
2024/01/15 14:17:33;;;;;;;;;;;;;;;1.54;71.89;96469.22;5059323;28;20094;-59
2024/01/15 14:20:21;;;;;;;;;;;;;;;1.50;71.95;96472.81;5060525;28;20390;-60
2024/01/15 14:23:13;;;;;;;;;;;;;;;1.31;72.94;96460.19;5060650;28;20378;-59
2024/01/15 14:26:01;;;;;;;;;;;;;;;1.39;72.50;96455.28;5064287;28;19940;-59
2024/01/15 14:28:49;;;;;;;;;;;;;;;1.61;72.39;96446.69;5067125;28;19931;-60
2024/01/15 14:31:40;;;;;;;;;;;;;;;1.59;71.82;96463.03;5067296;28;19925;-60
2024/01/15 14:34:28;;;;;;;;;;;;;;;1.70;70.46;96463.69;5062815;28;19925;-59
2024/01/15 14:37:17;;;;;;;;;;;;;;;1.56;70.57;96460.94;5074267;28;19999;-59
2024/01/15 14:40:06;;;;;;;;;;;;;;;1.64;70.39;96470.19;5061087;28;20409;-59
2024/01/15 14:42:55;;;;;;;;;;;;;;;1.90;69.47;96475.97;5073691;28;19955;-59
2024/01/15 14:45:43;;;;;;;;;;;;;;;1.76;69.59;96470.56;5054685;28;20274;-60